Time;durP1;ratioP1;P1;durP2;ratioP2;P2;SDS_P1;SDS_P2;PMS_P1;PMS_P2;Temp;Humidity;BMP_temperature;BMP_pressure;BME280_temperature;BME280_humidity;BME280_pressure;Samples;Min_cycle;Max_cycle;Signal;HPM_P1;HPM_P2
2023/05/13 00:01:28;;;;;;;13.50;2.80;;;;;;;11.38;50.53;100728.63;106461;1261;22621;-58
2023/05/13 00:03:59;;;;;;;12.60;3.00;;;;;;;11.29;50.72;100724.76;106358;1260;22534;-57
2023/05/13 00:06:30;;;;;;;15.60;3.20;;;;;;;11.20;50.90;100725.31;106466;1275;24463;-58
2023/05/13 00:09:01;;;;;;;13.40;2.70;;;;;;;11.16;50.88;100723.69;106593;1275;24370;-57
2023/05/13 00:11:32;;;;;;;11.50;2.60;;;;;;;11.11;51.04;100723.27;106500;1273;23011;-57
2023/05/13 00:14:03;;;;;;;11.00;2.80;;;;;;;11.03;51.08;100720.16;106390;1265;22568;-57
2023/05/13 00:16:34;;;;;;;13.40;3.10;;;;;;;10.96;51.08;100723.90;110437;1259;22247;-59
2023/05/13 00:19:05;;;;;;;14.50;3.10;;;;;;;10.93;51.27;100720.26;110435;1268;22233;-59
2023/05/13 00:21:36;;;;;;;13.50;2.40;;;;;;;10.89;51.45;100722.11;110396;1259;22998;-59
2023/05/13 00:24:08;;;;;;;10.80;2.60;;;;;;;10.82;51.62;100715.42;110443;1267;22637;-59
2023/05/13 00:26:38;;;;;;;12.70;2.80;;;;;;;10.82;51.66;100712.63;110459;1263;23423;-59
2023/05/13 00:29:10;;;;;;;8.50;2.40;;;;;;;10.82;51.61;100715.73;110415;1267;22418;-59
2023/05/13 00:31:41;;;;;;;12.40;2.50;;;;;;;10.81;51.69;100712.69;108060;1267;25337;-55
2023/05/13 00:34:12;;;;;;;14.90;2.80;;;;;;;10.79;51.67;100713.16;106413;1268;22520;-55
2023/05/13 00:36:43;;;;;;;15.10;2.80;;;;;;;10.79;51.63;100712.45;106421;1259;22535;-58
2023/05/13 00:39:14;;;;;;;8.20;2.40;;;;;;;10.77;51.87;100717.10;106398;1268;22755;-58
2023/05/13 00:41:45;;;;;;;9.50;2.30;;;;;;;10.74;51.88;100711.92;110424;1267;22216;-55
2023/05/13 00:44:16;;;;;;;11.10;2.40;;;;;;;10.74;52.00;100715.32;110454;1264;22192;-57
2023/05/13 00:46:49;;;;;;;11.90;2.90;;;;;;;10.73;51.96;100713.20;110436;1267;22188;-59
2023/05/13 00:49:20;;;;;;;12.60;2.70;;;;;;;10.70;52.09;100723.23;110445;1259;22332;-59
2023/05/13 00:51:53;;;;;;;7.90;2.20;;;;;;;10.66;52.24;100722.21;110434;1259;22164;-59
2023/05/13 00:54:25;;;;;;;12.80;2.80;;;;;;;10.62;52.25;100721.19;110443;1275;22371;-60
2023/05/13 00:56:58;;;;;;;11.10;3.00;;;;;;;10.58;52.51;100721.86;110444;1261;22915;-59
2023/05/13 00:59:30;;;;;;;11.10;2.90;;;;;;;10.54;52.59;100720.67;110423;1267;22350;-58
2023/05/13 01:02:14;;;;;;;10.40;2.10;;;;;;;10.51;52.52;100722.23;110433;1267;22163;-60
2023/05/13 01:04:53;;;;;;;10.30;2.40;;;;;;;10.48;52.83;100723.56;110466;1267;22387;-59
2023/05/13 01:07:34;;;;;;;9.50;2.10;;;;;;;10.49;52.69;100726.48;110444;1267;22283;-59
2023/05/13 01:10:12;;;;;;;13.50;2.70;;;;;;;10.49;52.70;100724.82;110449;1267;22957;-58
2023/05/13 01:12:46;;;;;;;12.80;2.20;;;;;;;10.46;52.76;100724.07;110427;1267;22416;-58
2023/05/13 01:15:20;;;;;;;10.30;2.60;;;;;;;10.44;52.78;100729.66;110450;1275;23428;-58
2023/05/13 01:17:57;;;;;;;10.90;2.70;;;;;;;10.42;52.91;100731.82;110450;1267;22166;-57
2023/05/13 01:20:30;;;;;;;13.00;2.50;;;;;;;10.40;52.97;100731.92;110438;1267;22153;-58
2023/05/13 01:23:02;;;;;;;14.50;3.00;;;;;;;10.40;53.01;100735.20;110462;1268;22167;-58
2023/05/13 01:25:35;;;;;;;12.40;2.30;;;;;;;10.35;53.22;100737.41;110436;1270;22423;-57
2023/05/13 01:28:07;;;;;;;9.80;3.00;;;;;;;10.28;53.18;100737.70;107466;1274;25493;-55
2023/05/13 01:30:38;;;;;;;11.00;2.60;;;;;;;10.23;53.28;100741.75;109934;1268;22531;-59
2023/05/13 01:33:10;;;;;;;9.70;2.90;;;;;;;10.17;53.35;100745.13;106423;1275;22545;-55
2023/05/13 01:35:42;;;;;;;11.50;2.70;;;;;;;10.13;53.48;100749.42;107552;1267;24428;-57
2023/05/13 01:38:14;;;;;;;11.30;2.50;;;;;;;10.07;53.60;100755.46;110455;1273;23395;-57
2023/05/13 01:40:46;;;;;;;10.70;2.40;;;;;;;10.01;53.84;100761.52;110435;1263;22175;-58
2023/05/13 01:43:17;;;;;;;10.90;2.40;;;;;;;9.93;53.71;100755.92;110434;1271;22240;-58
2023/05/13 01:45:48;;;;;;;8.90;2.60;;;;;;;9.88;53.90;100758.54;110454;1260;23164;-58
2023/05/13 01:48:19;;;;;;;14.60;3.30;;;;;;;9.80;54.21;100760.21;110439;1267;22260;-58
2023/05/13 01:50:51;;;;;;;11.60;2.60;;;;;;;9.71;54.23;100767.83;110459;1261;22219;-57
2023/05/13 01:53:22;;;;;;;9.40;2.20;;;;;;;9.65;54.36;100766.89;110446;1268;22261;-58
2023/05/13 01:55:53;;;;;;;12.90;3.20;;;;;;;9.61;54.48;100764.17;110466;1264;22163;-58
2023/05/13 01:58:24;;;;;;;13.40;2.90;;;;;;;9.53;54.62;100764.02;110471;1267;22296;-55
2023/05/13 02:00:54;;;;;;;12.50;3.20;;;;;;;9.45;54.96;100762.70;110412;1267;23148;-56
2023/05/13 02:03:25;;;;;;;11.10;3.10;;;;;;;9.39;55.15;100763.02;110446;1275;22290;-58
2023/05/13 02:05:56;;;;;;;12.10;3.10;;;;;;;9.34;55.29;100763.05;110458;1268;22166;-58
2023/05/13 02:08:27;;;;;;;11.00;2.20;;;;;;;9.27;55.49;100767.58;110438;1263;22244;-58
2023/05/13 02:10:59;;;;;;;7.90;2.10;;;;;;;9.17;55.71;100773.27;110428;1268;22195;-57
2023/05/13 02:13:30;;;;;;;11.80;2.80;;;;;;;9.08;55.90;100772.42;110466;1268;22239;-57
2023/05/13 02:16:00;;;;;;;11.20;3.50;;;;;;;9.01;56.24;100772.39;110461;1268;22369;-57
2023/05/13 02:18:31;;;;;;;11.70;2.40;;;;;;;8.93;56.27;100771.88;110427;1267;22295;-57
2023/05/13 02:21:02;;;;;;;12.80;3.10;;;;;;;8.87;56.40;100768.52;110457;1275;22226;-57
2023/05/13 02:23:33;;;;;;;13.00;3.10;;;;;;;8.78;56.58;100774.16;110490;1261;22342;-58
2023/05/13 02:26:04;;;;;;;11.50;3.30;;;;;;;8.71;56.75;100773.42;110477;1267;22415;-58
2023/05/13 02:28:34;;;;;;;9.10;2.80;;;;;;;8.66;57.08;100767.39;110456;1268;22294;-58
2023/05/13 02:31:06;;;;;;;12.60;3.00;;;;;;;8.61;57.24;100763.98;110466;1264;22172;-57
2023/05/13 02:33:37;;;;;;;11.10;2.80;;;;;;;8.57;57.50;100763.92;110488;1259;23225;-56
2023/05/13 02:36:08;;;;;;;10.20;2.90;;;;;;;8.46;57.62;100761.90;106810;1275;25311;-57
2023/05/13 02:38:39;;;;;;;11.50;3.00;;;;;;;8.39;57.87;100765.77;110474;1263;22361;-56
2023/05/13 02:41:10;;;;;;;13.40;2.70;;;;;;;8.29;58.05;100764.91;110459;1268;22154;-57
2023/05/13 02:43:41;;;;;;;12.60;3.00;;;;;;;8.21;58.14;100766.05;110476;1268;22242;-58
2023/05/13 02:46:12;;;;;;;12.90;3.30;;;;;;;8.16;58.37;100765.42;110459;1268;22147;-58
2023/05/13 02:48:43;;;;;;;13.10;2.90;;;;;;;8.13;58.53;100764.63;110444;1267;23216;-58
2023/05/13 02:51:14;;;;;;;11.00;3.20;;;;;;;8.10;58.79;100760.11;110476;1274;22203;-59
2023/05/13 02:53:45;;;;;;;15.40;3.50;;;;;;;8.06;58.96;100759.61;110438;1268;22167;-58
2023/05/13 02:56:16;;;;;;;12.20;2.80;;;;;;;8.03;59.08;100761.50;110435;1271;22125;-59
2023/05/13 02:58:46;;;;;;;11.60;3.20;;;;;;;7.98;59.33;100763.80;110477;1267;22559;-58
2023/05/13 03:01:17;;;;;;;14.50;3.40;;;;;;;7.94;59.53;100762.74;110459;1268;22951;-58
2023/05/13 03:03:48;;;;;;;16.60;3.80;;;;;;;7.92;59.66;100765.91;110474;1259;22397;-58
2023/05/13 03:06:19;;;;;;;11.80;3.30;;;;;;;7.92;59.79;100768.23;110517;1275;22335;-58
2023/05/13 03:08:50;;;;;;;17.90;4.50;;;;;;;7.94;59.82;100764.75;110501;1268;22983;-59
2023/05/13 03:11:21;;;;;;;14.70;3.40;;;;;;;7.97;60.04;100768.67;110451;1268;22323;-58
2023/05/13 03:13:52;;;;;;;15.30;4.10;;;;;;;7.98;60.11;100767.56;110464;1263;23498;-58
2023/05/13 03:16:22;;;;;;;12.70;3.60;;;;;;;7.96;60.17;100769.77;110473;1268;22227;-59
2023/05/13 03:18:53;;;;;;;12.00;2.80;;;;;;;7.94;60.31;100770.86;110486;1259;22944;-59
2023/05/13 03:21:24;;;;;;;10.40;2.70;;;;;;;7.90;60.46;100772.83;110473;1268;22913;-59
2023/05/13 03:23:55;;;;;;;13.50;3.30;;;;;;;7.85;60.68;100772.83;110489;1268;22444;-58
2023/05/13 03:26:26;;;;;;;14.70;3.60;;;;;;;7.80;60.87;100778.50;110506;1267;22256;-58
2023/05/13 03:28:57;;;;;;;13.70;3.50;;;;;;;7.77;61.06;100781.77;110445;1264;22185;-58
2023/05/13 03:31:29;;;;;;;12.90;3.10;;;;;;;7.74;61.09;100779.61;106581;1258;25412;-55
2023/05/13 03:34:00;;;;;;;15.30;3.60;;;;;;;7.74;61.19;100778.75;110460;1268;22429;-59
2023/05/13 03:36:31;;;;;;;14.10;3.20;;;;;;;7.78;61.30;100774.95;110502;1267;23402;-57
2023/05/13 03:39:02;;;;;;;13.00;3.30;;;;;;;7.82;61.48;100779.14;108217;1275;22557;-58
2023/05/13 03:41:32;;;;;;;17.10;3.60;;;;;;;7.82;61.57;100784.20;106499;1258;25265;-59
2023/05/13 03:44:03;;;;;;;14.70;3.30;;;;;;;7.85;61.51;100787.84;106457;1261;24251;-58
2023/05/13 03:46:34;;;;;;;21.90;3.60;;;;;;;7.86;61.69;100785.81;110464;1268;22435;-60
2023/05/13 03:49:05;;;;;;;11.30;3.20;;;;;;;7.86;61.90;100788.91;110479;1273;22271;-59
2023/05/13 03:51:36;;;;;;;12.50;2.90;;;;;;;7.85;61.89;100785.62;110470;1267;22292;-63
2023/05/13 03:54:07;;;;;;;10.30;2.80;;;;;;;7.86;62.10;100788.91;110520;1275;22513;-59
2023/05/13 03:56:38;;;;;;;15.00;3.50;;;;;;;7.88;62.23;100789.23;110473;1261;23584;-60
2023/05/13 03:59:09;;;;;;;12.00;3.20;;;;;;;7.90;62.27;100788.70;110478;1262;22415;-58
2023/05/13 04:01:41;;;;;;;13.50;3.20;;;;;;;7.92;62.46;100788.48;110481;1260;22251;-58
2023/05/13 04:04:12;;;;;;;10.40;3.00;;;;;;;7.96;62.56;100788.27;110448;1270;22259;-57
2023/05/13 04:06:43;;;;;;;13.40;3.50;;;;;;;8.00;62.70;100791.52;110493;1259;22927;-58
2023/05/13 04:09:14;;;;;;;10.60;2.80;;;;;;;8.05;62.63;100797.41;110455;1275;23012;-58
2023/05/13 04:11:45;;;;;;;15.10;3.30;;;;;;;8.10;62.98;100796.94;110416;1267;22141;-59
2023/05/13 04:14:16;;;;;;;11.40;3.20;;;;;;;8.12;63.02;100799.63;110441;1268;22215;-58
2023/05/13 04:16:47;;;;;;;12.40;2.90;;;;;;;8.17;62.99;100801.69;110472;1263;22175;-59
2023/05/13 04:19:18;;;;;;;11.00;3.30;;;;;;;8.24;63.12;100807.09;110453;1268;22319;-58
2023/05/13 04:21:48;;;;;;;12.00;3.80;;;;;;;8.31;63.24;100808.58;110421;1267;22339;-59
2023/05/13 04:24:19;;;;;;;16.90;4.50;;;;;;;8.38;63.14;100809.27;110455;1275;22191;-59
2023/05/13 04:26:50;;;;;;;12.00;3.20;;;;;;;8.47;63.25;100811.66;110461;1268;22192;-58
2023/05/13 04:29:21;;;;;;;15.20;3.60;;;;;;;8.58;63.18;100807.84;110470;1263;22272;-59
2023/05/13 04:31:52;;;;;;;20.40;4.10;;;;;;;8.67;63.07;100807.27;110466;1261;22432;-57
2023/05/13 04:34:23;;;;;;;11.40;3.50;;;;;;;8.77;63.18;100809.80;110451;1261;22802;-58
2023/05/13 04:36:54;;;;;;;15.00;3.30;;;;;;;8.87;63.27;100808.91;110466;1260;22369;-59
2023/05/13 04:39:25;;;;;;;16.20;4.20;;;;;;;8.96;63.22;100809.77;110462;1275;22392;-58
2023/05/13 04:41:57;;;;;;;11.90;3.10;;;;;;;9.07;62.93;100812.73;110436;1275;22359;-59
2023/05/13 04:44:27;;;;;;;11.80;3.80;;;;;;;9.18;62.96;100816.02;110454;1268;23270;-59
2023/05/13 04:46:58;;;;;;;10.50;2.90;;;;;;;9.28;62.84;100817.02;110457;1268;22418;-58
2023/05/13 04:49:29;;;;;;;9.70;2.40;;;;;;;9.39;62.78;100816.17;110488;1269;23225;-59
2023/05/13 04:52:01;;;;;;;9.00;2.60;;;;;;;9.52;62.69;100819.64;110454;1270;22243;-59
2023/05/13 04:54:34;;;;;;;12.10;2.70;;;;;;;9.65;62.38;100815.30;110477;1268;23446;-58
2023/05/13 04:57:05;;;;;;;16.00;3.40;;;;;;;9.77;62.44;100819.27;110505;1275;22148;-59
2023/05/13 04:59:36;;;;;;;9.80;2.40;;;;;;;9.91;62.16;100826.23;110484;1268;22132;-59
2023/05/13 05:02:07;;;;;;;12.70;2.80;;;;;;;10.01;62.15;100825.64;110465;1268;22262;-59
2023/05/13 05:04:38;;;;;;;10.90;2.80;;;;;;;10.13;61.95;100824.85;110494;1263;22139;-59
2023/05/13 05:07:09;;;;;;;11.60;3.00;;;;;;;10.27;61.84;100826.86;110477;1268;22246;-58
2023/05/13 05:09:39;;;;;;;11.40;2.90;;;;;;;10.41;61.70;100823.86;110476;1260;23084;-58
2023/05/13 05:12:11;;;;;;;12.90;3.70;;;;;;;10.53;61.56;100825.44;110461;1264;22238;-58
2023/05/13 05:14:42;;;;;;;10.40;2.70;;;;;;;10.65;61.38;100826.87;110470;1259;22244;-59
2023/05/13 05:17:13;;;;;;;11.70;2.80;;;;;;;10.77;60.97;100823.54;110457;1268;23619;-56
2023/05/13 05:19:44;;;;;;;11.90;2.70;;;;;;;10.89;60.81;100826.91;110460;1264;22156;-59
2023/05/13 05:22:15;;;;;;;8.40;2.70;;;;;;;11.00;60.65;100830.77;110427;1268;22251;-58
2023/05/13 05:24:46;;;;;;;15.30;3.20;;;;;;;11.10;60.49;100832.63;110493;1267;22400;-60
2023/05/13 05:27:18;;;;;;;16.20;3.80;;;;;;;11.21;60.52;100829.44;110486;1263;22150;-57
2023/05/13 05:29:49;;;;;;;10.80;2.30;;;;;;;11.32;60.16;100833.59;110497;1268;22127;-58
2023/05/13 05:32:20;;;;;;;11.90;2.70;;;;;;;11.44;60.05;100834.99;110481;1268;22365;-58
2023/05/13 05:34:51;;;;;;;11.60;2.90;;;;;;;11.53;59.85;100833.29;110466;1261;22168;-58
2023/05/13 05:37:22;;;;;;;13.20;2.80;;;;;;;11.61;59.90;100833.85;110443;1264;22812;-61
2023/05/13 05:39:53;;;;;;;13.70;2.50;;;;;;;11.72;59.56;100832.96;110498;1259;22296;-58
2023/05/13 05:42:24;;;;;;;9.70;2.80;;;;;;;11.82;59.74;100838.86;110504;1275;22165;-59
2023/05/13 05:44:55;;;;;;;10.80;2.60;;;;;;;11.91;59.18;100841.26;110448;1268;22934;-58
2023/05/13 05:47:26;;;;;;;11.50;3.00;;;;;;;12.01;59.13;100840.63;110519;1267;22270;-58
2023/05/13 05:49:56;;;;;;;16.00;3.00;;;;;;;12.12;58.77;100840.52;110486;1267;22146;-58
2023/05/13 05:52:27;;;;;;;14.90;3.00;;;;;;;12.23;58.75;100840.70;110462;1270;22251;-58
2023/05/13 05:54:58;;;;;;;10.80;2.50;;;;;;;12.31;58.68;100842.20;110485;1267;23035;-59
2023/05/13 05:57:29;;;;;;;12.90;2.70;;;;;;;12.42;58.29;100846.03;110527;1267;22164;-59
2023/05/13 06:00:00;;;;;;;11.40;3.10;;;;;;;12.51;57.94;100850.02;110502;1268;22237;-58
2023/05/13 06:02:31;;;;;;;12.10;3.70;;;;;;;12.60;57.70;100848.52;110472;1268;23091;-58
2023/05/13 06:05:02;;;;;;;13.00;2.80;;;;;;;12.69;57.56;100847.83;110509;1264;22381;-58
2023/05/13 06:07:33;;;;;;;13.30;2.80;;;;;;;12.78;57.25;100845.66;110467;1271;22368;-59
2023/05/13 06:10:04;;;;;;;10.70;2.40;;;;;;;12.86;57.22;100849.64;110486;1270;22163;-57
2023/05/13 06:12:35;;;;;;;12.80;2.90;;;;;;;12.92;56.98;100843.40;107874;1268;22505;-58
2023/05/13 06:15:09;;;;;;;16.10;4.10;;;;;;;12.98;57.11;100842.84;106543;1274;25620;-56
2023/05/13 06:17:40;;;;;;;12.70;3.20;;;;;;;13.05;56.97;100843.45;110477;1268;23084;-57
2023/05/13 06:20:12;;;;;;;16.00;3.40;;;;;;;13.14;56.99;100845.05;110356;1267;22414;-59
2023/05/13 06:22:43;;;;;;;11.20;2.90;;;;;;;13.23;56.95;100844.16;107583;1270;22627;-56
2023/05/13 06:25:14;;;;;;;12.20;3.00;;;;;;;13.31;56.66;100847.59;106404;1267;25399;-58
2023/05/13 06:27:45;;;;;;;13.00;3.10;;;;;;;13.39;56.59;100847.48;110463;1267;23085;-57
2023/05/13 06:30:16;;;;;;;17.90;4.00;;;;;;;13.48;56.56;100847.23;110497;1271;22204;-57
2023/05/13 06:32:47;;;;;;;13.90;4.00;;;;;;;13.56;56.20;100848.85;110522;1270;22342;-59
2023/05/13 06:35:18;;;;;;;14.80;3.70;;;;;;;13.63;56.51;100850.54;110460;1267;22338;-58
2023/05/13 06:37:49;;;;;;;9.50;2.70;;;;;;;13.73;56.13;100850.77;110429;1267;22378;-56
2023/05/13 06:40:20;;;;;;;16.40;3.10;;;;;;;13.82;56.14;100848.89;110478;1268;22224;-57
2023/05/13 06:42:51;;;;;;;17.30;3.10;;;;;;;13.92;56.00;100852.17;110456;1259;22405;-54
2023/05/13 06:45:24;;;;;;;13.20;4.10;;;;;;;14.02;55.65;100856.10;110498;1271;23174;-56
2023/05/13 06:47:55;;;;;;;12.50;3.00;;;;;;;14.11;55.69;100855.36;110484;1271;22170;-56
2023/05/13 06:50:26;;;;;;;15.30;3.80;;;;;;;14.19;55.83;100860.42;110458;1268;22274;-59
2023/05/13 06:52:58;;;;;;;14.40;3.70;;;;;;;14.27;55.59;100858.83;106989;1271;22520;-57
2023/05/13 06:55:29;;;;;;;10.20;2.90;;;;;;;14.33;55.39;100857.60;110490;1264;22244;-58
2023/05/13 06:57:59;;;;;;;10.50;2.80;;;;;;;14.40;55.29;100859.42;110509;1264;22391;-62
2023/05/13 07:00:30;;;;;;;11.60;3.40;;;;;;;14.46;55.16;100854.10;110507;1268;22455;-62
2023/05/13 07:03:02;;;;;;;13.90;3.90;;;;;;;14.53;55.07;100854.89;110477;1271;23078;-62
2023/05/13 07:05:34;;;;;;;13.10;3.10;;;;;;;14.59;54.92;100857.92;110457;1271;22162;-62
2023/05/13 07:08:07;;;;;;;13.50;3.80;;;;;;;14.66;54.82;100861.75;110480;1268;22253;-62
2023/05/13 07:10:38;;;;;;;16.40;3.60;;;;;;;14.77;55.11;100855.23;110479;1267;23127;-62
2023/05/13 07:13:09;;;;;;;15.80;3.20;;;;;;;14.87;54.92;100855.81;110481;1265;23129;-62
2023/05/13 07:15:40;;;;;;;11.10;2.50;;;;;;;14.95;54.31;100854.58;110461;1264;23201;-62
2023/05/13 07:18:11;;;;;;;11.20;3.10;;;;;;;15.00;54.60;100858.45;110501;1268;22626;-61
2023/05/13 07:20:42;;;;;;;17.20;3.40;;;;;;;15.06;54.49;100856.95;110495;1264;22402;-61
2023/05/13 07:23:13;;;;;;;13.30;3.00;;;;;;;15.14;54.32;100856.67;110481;1269;22261;-62
2023/05/13 07:25:44;;;;;;;12.20;3.10;;;;;;;15.20;53.89;100859.02;110493;1270;22406;-61
2023/05/13 07:28:15;;;;;;;13.80;3.70;;;;;;;15.27;54.11;100858.85;110461;1259;22223;-62
2023/05/13 07:30:46;;;;;;;13.10;3.50;;;;;;;15.34;54.02;100857.59;110525;1267;22268;-62
2023/05/13 07:33:17;;;;;;;13.70;3.00;;;;;;;15.44;53.96;100856.56;110452;1268;23081;-61
2023/05/13 07:35:47;;;;;;;15.10;3.10;;;;;;;15.53;54.24;100855.43;106959;1270;22534;-62
2023/05/13 07:38:19;;;;;;;12.60;2.50;;;;;;;15.65;54.13;100853.03;106431;1266;24259;-62
2023/05/13 07:40:50;;;;;;;10.80;3.20;;;;;;;15.74;53.99;100856.94;106522;1265;25375;-60
2023/05/13 07:43:23;;;;;;;8.60;3.00;;;;;;;15.81;53.63;100858.12;106628;1274;22644;-61
2023/05/13 07:45:54;;;;;;;12.30;2.50;;;;;;;15.87;53.40;100861.03;106775;1273;22531;-61
2023/05/13 07:48:27;;;;;;;15.20;3.80;;;;;;;15.92;53.48;100865.05;106715;1265;22511;-60
2023/05/13 07:50:58;;;;;;;15.20;3.70;;;;;;;16.01;53.29;100866.04;106605;1271;24283;-61
2023/05/13 07:53:29;;;;;;;17.40;4.00;;;;;;;16.08;53.19;100866.61;106656;1265;24214;-62
2023/05/13 07:56:00;;;;;;;27.30;4.90;;;;;;;16.16;53.42;100865.68;106629;1266;25288;-61
2023/05/13 07:58:31;;;;;;;14.20;3.10;;;;;;;16.24;53.01;100870.19;106586;1266;24232;-60
2023/05/13 08:01:02;;;;;;;19.60;3.90;;;;;;;16.28;52.68;100872.16;106625;1258;22514;-62
2023/05/13 08:03:33;;;;;;;9.60;3.10;;;;;;;16.30;52.38;100870.52;106639;1268;22596;-60
2023/05/13 08:06:04;;;;;;;15.90;3.90;;;;;;;16.35;52.41;100869.13;106721;1267;22592;-62
2023/05/13 08:08:35;;;;;;;11.20;2.60;;;;;;;16.39;52.23;100858.70;106775;1273;25287;-62
2023/05/13 08:11:07;;;;;;;9.80;2.50;;;;;;;16.45;52.03;100870.92;106701;1271;22569;-62
2023/05/13 08:13:38;;;;;;;10.70;3.00;;;;;;;16.50;51.92;100871.73;106553;1259;23020;-59
2023/05/13 08:16:09;;;;;;;10.50;3.10;;;;;;;16.54;51.85;100867.96;106611;1260;22537;-59
2023/05/13 08:18:40;;;;;;;14.10;2.70;;;;;;;16.60;51.66;100871.48;106695;1266;25492;-58
2023/05/13 08:21:11;;;;;;;9.10;2.60;;;;;;;16.69;52.38;100870.65;106700;1273;22522;-59
2023/05/13 08:23:42;;;;;;;11.60;2.70;;;;;;;16.81;51.71;100871.73;106740;1268;24199;-59
2023/05/13 08:26:13;;;;;;;12.20;3.20;;;;;;;16.85;51.57;100876.87;106659;1267;25303;-57
2023/05/13 08:28:44;;;;;;;11.10;3.30;;;;;;;16.89;51.22;100876.62;106705;1269;25468;-59
2023/05/13 08:31:15;;;;;;;12.10;2.80;;;;;;;16.95;51.49;100874.09;106762;1265;25345;-58
2023/05/13 08:33:47;;;;;;;12.20;2.60;;;;;;;17.04;51.60;100870.63;106565;1265;22589;-58
2023/05/13 08:36:18;;;;;;;13.60;2.90;;;;;;;17.13;51.50;100876.34;106730;1273;24189;-58
2023/05/13 08:38:49;;;;;;;11.70;3.10;;;;;;;17.23;51.25;100878.66;106560;1271;24263;-58
2023/05/13 08:41:21;;;;;;;12.00;2.40;;;;;;;17.27;50.79;100873.19;106573;1253;26973;-58
2023/05/13 08:43:55;;;;;;;13.80;3.10;;;;;;;17.31;50.86;100875.96;106729;1266;22533;-59
2023/05/13 08:46:29;;;;;;;11.30;2.60;;;;;;;17.36;50.36;100874.07;106829;1271;22530;-58
2023/05/13 08:49:01;;;;;;;15.40;2.90;;;;;;;17.37;50.55;100871.10;106670;1268;25512;-56
2023/05/13 08:51:33;;;;;;;12.30;3.20;;;;;;;17.42;50.52;100871.91;106944;1269;22573;-58
2023/05/13 08:54:08;;;;;;;13.90;3.30;;;;;;;17.48;50.18;100871.38;106773;1272;22520;-58
2023/05/13 08:56:40;;;;;;;13.40;3.50;;;;;;;17.51;49.97;100870.58;106644;1273;22535;-58
2023/05/13 08:59:11;;;;;;;11.40;2.90;;;;;;;17.57;50.39;100871.71;106611;1268;24370;-59
2023/05/13 09:01:42;;;;;;;9.00;2.60;;;;;;;17.67;50.33;100868.59;106564;1274;26389;-59
2023/05/13 09:04:13;;;;;;;9.90;2.40;;;;;;;17.74;49.49;100869.66;106665;1260;22519;-58
2023/05/13 09:06:46;;;;;;;10.30;2.20;;;;;;;17.73;49.46;100870.02;106622;1273;22560;-58
2023/05/13 09:09:18;;;;;;;6.90;2.10;;;;;;;17.76;49.59;100865.36;106868;1273;24263;-59
2023/05/13 09:11:50;;;;;;;12.20;2.60;;;;;;;17.81;48.97;100865.91;106638;1268;24168;-60
2023/05/13 09:14:21;;;;;;;10.10;2.20;;;;;;;17.85;48.75;100865.49;106785;1274;24283;-59
2023/05/13 09:16:55;;;;;;;6.60;1.50;;;;;;;17.88;48.82;100861.59;106701;1265;22517;-61
2023/05/13 09:19:27;;;;;;;8.00;1.60;;;;;;;17.93;47.69;100863.39;106805;1260;22727;-59
2023/05/13 09:21:58;;;;;;;6.00;1.40;;;;;;;17.93;47.70;100860.45;106734;1266;22666;-59
2023/05/13 09:24:29;;;;;;;11.10;2.70;;;;;;;17.95;47.84;100861.95;106728;1269;22643;-58
2023/05/13 09:27:00;;;;;;;6.90;1.70;;;;;;;17.99;47.79;100856.54;106607;1266;22574;-59
2023/05/13 09:29:32;;;;;;;7.00;1.90;;;;;;;18.03;47.40;100851.46;106624;1269;22521;-59
2023/05/13 09:32:07;;;;;;;6.00;1.80;;;;;;;18.06;47.09;100853.10;106677;1250;25558;-54
2023/05/13 09:34:38;;;;;;;10.10;1.70;;;;;;;18.05;47.29;100852.94;107058;1263;25373;-57
2023/05/13 09:37:09;;;;;;;8.40;2.30;;;;;;;18.06;47.11;100849.24;106640;1258;22570;-59
2023/05/13 09:39:42;;;;;;;5.40;1.30;;;;;;;18.07;46.45;100849.86;106548;1265;22536;-57
2023/05/13 09:42:19;;;;;;;8.60;1.50;;;;;;;18.10;45.79;100847.44;106801;1273;22610;-59
2023/05/13 09:44:50;;;;;;;5.40;1.00;;;;;;;18.16;45.70;100847.83;107013;1262;25487;-59
2023/05/13 09:47:24;;;;;;;9.40;1.90;;;;;;;18.25;45.67;100846.07;106629;1273;22525;-60
2023/05/13 09:49:59;;;;;;;12.90;2.10;;;;;;;18.32;45.62;100842.23;106589;1273;22633;-56
2023/05/13 09:52:31;;;;;;;9.70;1.80;;;;;;;18.39;45.68;100846.59;106686;1273;22521;-58
2023/05/13 09:55:04;;;;;;;9.20;1.90;;;;;;;18.43;45.37;100848.85;106503;1269;25364;-57
2023/05/13 09:57:36;;;;;;;8.90;2.00;;;;;;;18.41;45.08;100842.94;108989;1259;24275;-56
2023/05/13 10:00:09;;;;;;;10.60;2.20;;;;;;;18.36;45.22;100845.26;106743;1273;22560;-59
2023/05/13 10:02:41;;;;;;;5.70;1.70;;;;;;;18.37;45.38;100845.67;106793;1271;24256;-59
2023/05/13 10:05:13;;;;;;;10.90;1.80;;;;;;;18.39;44.82;100845.70;106759;1266;22533;-59
2023/05/13 10:07:44;;;;;;;6.20;1.50;;;;;;;18.41;44.13;100838.88;106674;1271;25233;-58
2023/05/13 10:10:15;;;;;;;7.50;1.60;;;;;;;18.40;43.84;100834.25;106703;1259;22991;-60
2023/05/13 10:12:47;;;;;;;6.50;1.90;;;;;;;18.41;43.60;100835.39;106605;1264;25308;-55
2023/05/13 10:15:19;;;;;;;6.60;1.40;;;;;;;18.47;43.79;100830.77;106819;1274;24311;-58
2023/05/13 10:17:51;;;;;;;6.30;1.30;;;;;;;18.56;43.31;100830.77;106725;1273;22668;-59
2023/05/13 10:20:24;;;;;;;9.60;1.60;;;;;;;18.61;43.12;100826.64;106793;1274;24224;-58
2023/05/13 10:22:57;;;;;;;9.30;1.80;;;;;;;18.67;43.33;100826.05;106861;1260;22527;-59
2023/05/13 10:25:29;;;;;;;8.30;1.50;;;;;;;18.74;42.74;100833.30;106639;1273;22524;-59
2023/05/13 10:28:03;;;;;;;9.10;1.90;;;;;;;18.76;42.37;100835.41;106787;1261;26476;-59
2023/05/13 10:30:34;;;;;;;15.00;1.40;;;;;;;18.78;42.00;100837.00;106644;1267;24218;-59
2023/05/13 10:33:06;;;;;;;10.30;1.60;;;;;;;18.83;41.63;100837.08;106931;1268;24338;-59
2023/05/13 10:35:41;;;;;;;6.70;1.50;;;;;;;18.90;41.64;100831.43;106774;1266;22524;-58
2023/05/13 10:38:16;;;;;;;8.80;1.30;;;;;;;18.94;41.50;100831.05;106776;1271;22522;-59
2023/05/13 10:41:08;;;;;;;11.80;1.30;;;;;;;18.99;41.21;100826.75;106745;1267;22531;-58
2023/05/13 10:43:40;;;;;;;7.10;1.40;;;;;;;19.07;40.79;100827.37;106620;1259;22646;-56
2023/05/13 10:46:13;;;;;;;6.30;1.50;;;;;;;19.19;40.50;100825.86;106807;1271;23251;-58
2023/05/13 10:48:47;;;;;;;28.10;19.90;;;;;;;19.24;40.34;100823.14;106732;1267;22563;-58
2023/05/13 10:51:22;;;;;;;14.30;7.00;;;;;;;19.31;40.25;100829.64;106819;1268;24233;-59
2023/05/13 10:53:55;;;;;;;13.10;2.60;;;;;;;19.35;39.82;100831.01;106963;1271;22520;-57
2023/05/13 10:56:27;;;;;;;7.90;2.40;;;;;;;19.37;39.38;100830.85;106793;1260;24063;-59
2023/05/13 10:59:02;;;;;;;6.50;1.80;;;;;;;19.39;39.40;100832.02;106914;1268;24287;-59
2023/05/13 11:01:37;;;;;;;6.10;1.50;;;;;;;19.44;39.46;100828.12;106683;1257;24386;-59
2023/05/13 11:04:12;;;;;;;8.50;1.60;;;;;;;19.51;39.88;100831.67;106662;1271;22537;-59
2023/05/13 11:06:46;;;;;;;8.20;1.80;;;;;;;19.58;39.69;100829.77;106901;1273;25606;-59
2023/05/13 11:09:30;;;;;;;14.40;4.80;;;;;;;19.60;39.58;100832.36;107021;1272;24727;-60
2023/05/13 11:12:03;;;;;;;12.70;5.00;;;;;;;19.64;39.53;100829.09;106827;1267;24190;-60
2023/05/13 11:14:34;;;;;;;11.20;3.00;;;;;;;19.70;39.48;100830.22;106716;1273;24222;-59
2023/05/13 11:17:17;;;;;;;10.90;1.60;;;;;;;19.76;39.72;100832.98;106630;1269;25365;-58
2023/05/13 11:19:50;;;;;;;5.70;1.50;;;;;;;19.84;39.37;100828.80;106844;1268;24225;-59
2023/05/13 11:22:23;;;;;;;6.10;1.30;;;;;;;19.90;38.97;100831.16;106865;1271;23006;-60
2023/05/13 11:25:08;;;;;;;11.60;1.90;;;;;;;19.96;38.96;100825.23;106690;1268;26617;-58
2023/05/13 11:27:42;;;;;;;8.80;1.70;;;;;;;20.03;38.85;100821.40;106860;1273;26110;-59
2023/05/13 11:30:24;;;;;;;8.10;1.80;;;;;;;20.09;38.92;100821.02;106850;1271;25337;-58
2023/05/13 11:32:57;;;;;;;7.70;1.60;;;;;;;20.12;38.12;100823.77;106610;1274;22520;-58
2023/05/13 11:35:30;;;;;;;6.90;1.40;;;;;;;20.11;38.16;100820.13;106891;1267;22575;-57